sensor_id;sensor_type;location;lat;lon;timestamp;pressure;altitude;pressure_sealevel;temperature;humidity
76260;BME280;65076;52.362;6.588;2023-06-22T00:00:31;101932.06;;;22.16;64.79
76260;BME280;65076;52.362;6.588;2023-06-22T00:02:58;101933.56;;;22.20;64.51
76260;BME280;65076;52.362;6.588;2023-06-22T00:05:26;101934.22;;;22.23;63.45
76260;BME280;65076;52.362;6.588;2023-06-22T00:07:54;101932.00;;;22.28;63.18
76260;BME280;65076;52.362;6.588;2023-06-22T00:10:22;101945.19;;;22.01;64.19
76260;BME280;65076;52.362;6.588;2023-06-22T00:12:52;101925.69;;;22.15;63.60
76260;BME280;65076;52.362;6.588;2023-06-22T00:15:20;101926.97;;;22.22;63.47
76260;BME280;65076;52.362;6.588;2023-06-22T00:17:49;101926.97;;;21.87;64.54
76260;BME280;65076;52.362;6.588;2023-06-22T00:20:17;101935.56;;;21.83;65.09
76260;BME280;65076;52.362;6.588;2023-06-22T00:22:45;101931.09;;;21.93;64.55
76260;BME280;65076;52.362;6.588;2023-06-22T00:25:14;101927.41;;;21.70;66.03
76260;BME280;65076;52.362;6.588;2023-06-22T00:27:42;101920.00;;;21.47;66.93
76260;BME280;65076;52.362;6.588;2023-06-22T00:30:12;101920.56;;;21.87;65.53
76260;BME280;65076;52.362;6.588;2023-06-22T00:32:41;101927.97;;;21.86;66.17
76260;BME280;65076;52.362;6.588;2023-06-22T00:35:09;101924.84;;;21.67;67.27
76260;BME280;65076;52.362;6.588;2023-06-22T00:37:38;101918.50;;;21.78;66.54
76260;BME280;65076;52.362;6.588;2023-06-22T00:40:09;101916.88;;;21.75;66.51
76260;BME280;65076;52.362;6.588;2023-06-22T00:42:38;101907.38;;;21.79;65.66
76260;BME280;65076;52.362;6.588;2023-06-22T00:45:07;101914.34;;;21.61;65.45
76260;BME280;65076;52.362;6.588;2023-06-22T00:47:37;101899.84;;;20.86;68.29
76260;BME280;65076;52.362;6.588;2023-06-22T00:50:07;101898.59;;;20.66;68.72
76260;BME280;65076;52.362;6.588;2023-06-22T00:52:36;101902.69;;;20.97;68.24
76260;BME280;65076;52.362;6.588;2023-06-22T00:55:09;101894.59;;;21.07;67.58
76260;BME280;65076;52.362;6.588;2023-06-22T00:57:37;101889.50;;;21.26;67.05
76260;BME280;65076;52.362;6.588;2023-06-22T01:00:07;101882.59;;;21.44;66.10
76260;BME280;65076;52.362;6.588;2023-06-22T01:02:39;101879.00;;;21.55;66.28
76260;BME280;65076;52.362;6.588;2023-06-22T01:05:08;101877.13;;;21.32;66.85
76260;BME280;65076;52.362;6.588;2023-06-22T01:07:40;101893.75;;;21.30;66.79
76260;BME280;65076;52.362;6.588;2023-06-22T01:10:18;101898.59;;;21.03;68.39
76260;BME280;65076;52.362;6.588;2023-06-22T01:12:55;101892.06;;;21.17;68.13
76260;BME280;65076;52.362;6.588;2023-06-22T01:15:31;101888.81;;;21.35;67.67
76260;BME280;65076;52.362;6.588;2023-06-22T01:18:08;101890.72;;;21.22;67.04
76260;BME280;65076;52.362;6.588;2023-06-22T01:20:38;101902.59;;;21.46;67.23
76260;BME280;65076;52.362;6.588;2023-06-22T01:23:11;101907.66;;;21.29;67.70
76260;BME280;65076;52.362;6.588;2023-06-22T01:26:02;101908.69;;;20.66;69.43
76260;BME280;65076;52.362;6.588;2023-06-22T01:28:42;101902.31;;;20.65;70.05
76260;BME280;65076;52.362;6.588;2023-06-22T01:31:13;101909.53;;;20.79;70.31
76260;BME280;65076;52.362;6.588;2023-06-22T01:33:47;101909.47;;;20.43;71.12
76260;BME280;65076;52.362;6.588;2023-06-22T01:36:20;101906.44;;;20.84;69.94
76260;BME280;65076;52.362;6.588;2023-06-22T01:38:50;101908.28;;;20.96;69.50
76260;BME280;65076;52.362;6.588;2023-06-22T01:41:20;101904.75;;;20.94;69.33
76260;BME280;65076;52.362;6.588;2023-06-22T01:43:50;101902.63;;;21.10;68.72
76260;BME280;65076;52.362;6.588;2023-06-22T01:46:20;101908.13;;;21.23;68.74
76260;BME280;65076;52.362;6.588;2023-06-22T01:48:49;101902.34;;;21.02;68.96
76260;BME280;65076;52.362;6.588;2023-06-22T01:51:18;101897.13;;;20.73;70.25
76260;BME280;65076;52.362;6.588;2023-06-22T01:53:47;101904.06;;;20.28;71.37
76260;BME280;65076;52.362;6.588;2023-06-22T01:56:16;101896.19;;;20.62;71.63
76260;BME280;65076;52.362;6.588;2023-06-22T01:58:47;101899.22;;;20.83;70.30
76260;BME280;65076;52.362;6.588;2023-06-22T02:01:25;101894.34;;;20.86;69.66
76260;BME280;65076;52.362;6.588;2023-06-22T02:04:03;101894.97;;;20.53;70.63
76260;BME280;65076;52.362;6.588;2023-06-22T02:06:39;101900.53;;;20.77;71.03
76260;BME280;65076;52.362;6.588;2023-06-22T02:09:13;101904.88;;;20.30;71.76
76260;BME280;65076;52.362;6.588;2023-06-22T02:11:45;101889.44;;;20.15;73.18
76260;BME280;65076;52.362;6.588;2023-06-22T02:14:16;101885.19;;;20.37;72.68
76260;BME280;65076;52.362;6.588;2023-06-22T02:16:46;101889.31;;;20.67;71.37
76260;BME280;65076;52.362;6.588;2023-06-22T02:19:14;101880.31;;;20.53;71.96
76260;BME280;65076;52.362;6.588;2023-06-22T02:21:45;101890.00;;;20.08;72.81
76260;BME280;65076;52.362;6.588;2023-06-22T02:24:13;101883.28;;;19.86;74.68
76260;BME280;65076;52.362;6.588;2023-06-22T02:26:42;101879.78;;;19.97;74.93
76260;BME280;65076;52.362;6.588;2023-06-22T02:29:12;101878.78;;;20.23;73.47
76260;BME280;65076;52.362;6.588;2023-06-22T02:31:41;101873.84;;;20.16;73.51
76260;BME280;65076;52.362;6.588;2023-06-22T02:34:09;101875.25;;;19.96;74.94
76260;BME280;65076;52.362;6.588;2023-06-22T02:36:45;101891.50;;;19.74;76.33
76260;BME280;65076;52.362;6.588;2023-06-22T02:39:19;101890.19;;;19.79;76.05
76260;BME280;65076;52.362;6.588;2023-06-22T02:41:49;101891.09;;;19.93;75.24
76260;BME280;65076;52.362;6.588;2023-06-22T02:44:17;101884.63;;;20.06;75.21
76260;BME280;65076;52.362;6.588;2023-06-22T02:46:48;101886.41;;;20.33;74.19
76260;BME280;65076;52.362;6.588;2023-06-22T02:49:16;101893.75;;;20.07;75.47
76260;BME280;65076;52.362;6.588;2023-06-22T02:51:46;101891.34;;;20.15;75.67
76260;BME280;65076;52.362;6.588;2023-06-22T02:54:15;101885.38;;;20.21;75.10
76260;BME280;65076;52.362;6.588;2023-06-22T02:56:44;101885.38;;;20.59;74.14
76260;BME280;65076;52.362;6.588;2023-06-22T02:59:12;101883.50;;;20.72;72.55
76260;BME280;65076;52.362;6.588;2023-06-22T03:01:40;101881.94;;;20.68;72.07
76260;BME280;65076;52.362;6.588;2023-06-22T03:04:09;101891.22;;;20.16;74.20
76260;BME280;65076;52.362;6.588;2023-06-22T03:06:37;101888.88;;;19.72;76.32
76260;BME280;65076;52.362;6.588;2023-06-22T03:09:07;101894.06;;;20.02;75.52
76260;BME280;65076;52.362;6.588;2023-06-22T03:11:35;101886.06;;;20.37;74.71
76260;BME280;65076;52.362;6.588;2023-06-22T03:14:03;101887.91;;;19.99;75.76
76260;BME280;65076;52.362;6.588;2023-06-22T03:16:31;101891.28;;;19.89;75.89
76260;BME280;65076;52.362;6.588;2023-06-22T03:19:00;101888.66;;;20.01;75.84
76260;BME280;65076;52.362;6.588;2023-06-22T03:21:29;101884.88;;;19.51;77.75
76260;BME280;65076;52.362;6.588;2023-06-22T03:23:58;101886.63;;;19.52;77.86
76260;BME280;65076;52.362;6.588;2023-06-22T03:26:26;101884.53;;;19.56;78.25
76260;BME280;65076;52.362;6.588;2023-06-22T03:28:54;101888.09;;;19.43;78.90
76260;BME280;65076;52.362;6.588;2023-06-22T03:31:23;101881.72;;;19.43;79.40
76260;BME280;65076;52.362;6.588;2023-06-22T03:33:51;101884.94;;;19.23;80.00
76260;BME280;65076;52.362;6.588;2023-06-22T03:36:19;101884.53;;;19.29;79.93
76260;BME280;65076;52.362;6.588;2023-06-22T03:38:51;101887.34;;;19.15;80.79
76260;BME280;65076;52.362;6.588;2023-06-22T03:41:19;101880.56;;;19.20;80.35
76260;BME280;65076;52.362;6.588;2023-06-22T03:43:47;101882.19;;;19.23;80.42
76260;BME280;65076;52.362;6.588;2023-06-22T03:46:15;101884.97;;;19.50;79.45
76260;BME280;65076;52.362;6.588;2023-06-22T03:48:43;101883.50;;;19.44;80.04
76260;BME280;65076;52.362;6.588;2023-06-22T03:51:11;101884.31;;;19.32;79.72
76260;BME280;65076;52.362;6.588;2023-06-22T03:53:39;101883.81;;;19.13;80.83
76260;BME280;65076;52.362;6.588;2023-06-22T03:56:09;101886.72;;;19.24;80.70
76260;BME280;65076;52.362;6.588;2023-06-22T03:58:37;101880.81;;;19.30;79.92
76260;BME280;65076;52.362;6.588;2023-06-22T04:01:09;101856.63;;;19.22;80.06
76260;BME280;65076;52.362;6.588;2023-06-22T04:03:38;101865.00;;;19.07;80.85
76260;BME280;65076;52.362;6.588;2023-06-22T04:06:06;101859.28;;;19.51;79.97
76260;BME280;65076;52.362;6.588;2023-06-22T04:08:35;101862.81;;;19.26;79.77
76260;BME280;65076;52.362;6.588;2023-06-22T04:11:03;101855.84;;;19.47;79.68
76260;BME280;65076;52.362;6.588;2023-06-22T04:13:33;101862.34;;;19.46;78.70
76260;BME280;65076;52.362;6.588;2023-06-22T04:16:01;101865.16;;;19.18;79.64
76260;BME280;65076;52.362;6.588;2023-06-22T04:18:29;101866.00;;;19.05;80.88
76260;BME280;65076;52.362;6.588;2023-06-22T04:20:57;101868.91;;;19.17;80.46
76260;BME280;65076;52.362;6.588;2023-06-22T04:23:25;101868.63;;;19.34;79.98
76260;BME280;65076;52.362;6.588;2023-06-22T04:25:53;101875.84;;;19.22;80.00
76260;BME280;65076;52.362;6.588;2023-06-22T04:28:22;101877.34;;;19.40;79.48
76260;BME280;65076;52.362;6.588;2023-06-22T04:30:55;101869.94;;;19.55;78.37
76260;BME280;65076;52.362;6.588;2023-06-22T04:33:25;101872.91;;;19.38;79.24
76260;BME280;65076;52.362;6.588;2023-06-22T04:35:53;101875.84;;;19.49;78.68
76260;BME280;65076;52.362;6.588;2023-06-22T04:38:21;101871.47;;;19.32;79.14
76260;BME280;65076;52.362;6.588;2023-06-22T04:40:49;101876.66;;;19.37;79.59
76260;BME280;65076;52.362;6.588;2023-06-22T04:43:17;101862.63;;;19.41;78.81
76260;BME280;65076;52.362;6.588;2023-06-22T04:45:45;101857.25;;;19.92;77.01
76260;BME280;65076;52.362;6.588;2023-06-22T04:48:20;101866.13;;;19.96;76.94
76260;BME280;65076;52.362;6.588;2023-06-22T04:50:48;101862.31;;;19.98;76.26
76260;BME280;65076;52.362;6.588;2023-06-22T04:53:16;101859.78;;;20.46;75.13
76260;BME280;65076;52.362;6.588;2023-06-22T04:55:44;101853.50;;;20.44;74.13
76260;BME280;65076;52.362;6.588;2023-06-22T04:58:15;101855.19;;;20.83;72.92
76260;BME280;65076;52.362;6.588;2023-06-22T05:00:46;101863.16;;;20.98;72.02
76260;BME280;65076;52.362;6.588;2023-06-22T05:03:17;101860.06;;;21.03;71.35
76260;BME280;65076;52.362;6.588;2023-06-22T05:05:47;101849.00;;;21.16;71.35
76260;BME280;65076;52.362;6.588;2023-06-22T05:08:16;101847.34;;;21.61;69.19
76260;BME280;65076;52.362;6.588;2023-06-22T05:10:44;101857.34;;;21.62;69.18
76260;BME280;65076;52.362;6.588;2023-06-22T05:13:30;101852.88;;;22.40;66.60
76260;BME280;65076;52.362;6.588;2023-06-22T05:15:58;101845.34;;;22.64;64.80
76260;BME280;65076;52.362;6.588;2023-06-22T05:18:29;101842.88;;;22.50;65.26
76260;BME280;65076;52.362;6.588;2023-06-22T05:21:00;101842.00;;;22.50;65.32
76260;BME280;65076;52.362;6.588;2023-06-22T05:23:28;101845.97;;;22.46;64.85
76260;BME280;65076;52.362;6.588;2023-06-22T05:25:56;101848.72;;;22.46;64.42
76260;BME280;65076;52.362;6.588;2023-06-22T05:28:25;101854.75;;;22.51;64.54
76260;BME280;65076;52.362;6.588;2023-06-22T05:30:53;101844.97;;;22.69;64.15
76260;BME280;65076;52.362;6.588;2023-06-22T05:33:21;101842.22;;;22.91;63.27
76260;BME280;65076;52.362;6.588;2023-06-22T05:35:50;101837.75;;;23.11;62.60
76260;BME280;65076;52.362;6.588;2023-06-22T05:38:20;101847.97;;;23.31;61.54
76260;BME280;65076;52.362;6.588;2023-06-22T05:40:48;101840.91;;;23.49;61.27
76260;BME280;65076;52.362;6.588;2023-06-22T05:43:16;101847.03;;;23.94;60.06
76260;BME280;65076;52.362;6.588;2023-06-22T05:45:44;101839.09;;;24.22;58.48
76260;BME280;65076;52.362;6.588;2023-06-22T05:48:12;101842.59;;;24.24;58.52
76260;BME280;65076;52.362;6.588;2023-06-22T05:50:41;101843.50;;;24.34;58.20
76260;BME280;65076;52.362;6.588;2023-06-22T05:53:15;101849.53;;;24.39;58.26
76260;BME280;65076;52.362;6.588;2023-06-22T05:55:44;101851.34;;;24.89;56.81
76260;BME280;65076;52.362;6.588;2023-06-22T05:58:13;101848.81;;;23.95;57.83
76260;BME280;65076;52.362;6.588;2023-06-22T06:00:44;101855.06;;;24.18;56.92
76260;BME280;65076;52.362;6.588;2023-06-22T06:03:13;101858.97;;;24.16;57.33
76260;BME280;65076;52.362;6.588;2023-06-22T06:05:43;101858.22;;;24.65;56.58
76260;BME280;65076;52.362;6.588;2023-06-22T06:08:12;101856.06;;;24.78;55.10
76260;BME280;65076;52.362;6.588;2023-06-22T06:10:57;101856.28;;;24.56;55.73
76260;BME280;65076;52.362;6.588;2023-06-22T06:13:25;101874.59;;;24.87;54.99
76260;BME280;65076;52.362;6.588;2023-06-22T06:15:53;101869.84;;;24.89;55.37
76260;BME280;65076;52.362;6.588;2023-06-22T06:18:21;101859.41;;;24.72;55.51
76260;BME280;65076;52.362;6.588;2023-06-22T06:20:49;101862.03;;;24.33;56.42
76260;BME280;65076;52.362;6.588;2023-06-22T06:23:17;101862.19;;;25.12;54.53
76260;BME280;65076;52.362;6.588;2023-06-22T06:25:45;101860.22;;;24.93;55.41
76260;BME280;65076;52.362;6.588;2023-06-22T06:28:15;101856.59;;;25.02;54.40
76260;BME280;65076;52.362;6.588;2023-06-22T06:30:49;101854.19;;;25.47;53.46
76260;BME280;65076;52.362;6.588;2023-06-22T06:33:19;101862.84;;;25.63;52.70
76260;BME280;65076;52.362;6.588;2023-06-22T06:35:59;101847.63;;;25.77;51.21
76260;BME280;65076;52.362;6.588;2023-06-22T06:38:30;101849.78;;;26.02;51.67
76260;BME280;65076;52.362;6.588;2023-06-22T06:41:17;101838.84;;;26.01;50.33
76260;BME280;65076;52.362;6.588;2023-06-22T06:43:49;101848.22;;;25.61;51.16
76260;BME280;65076;52.362;6.588;2023-06-22T06:46:23;101842.56;;;26.19;50.40
76260;BME280;65076;52.362;6.588;2023-06-22T06:48:51;101837.75;;;26.21;48.79
76260;BME280;65076;52.362;6.588;2023-06-22T06:51:19;101838.00;;;26.47;49.58
76260;BME280;65076;52.362;6.588;2023-06-22T06:53:47;101840.00;;;26.82;48.13
76260;BME280;65076;52.362;6.588;2023-06-22T06:56:15;101840.03;;;27.45;45.83
76260;BME280;65076;52.362;6.588;2023-06-22T06:58:43;101833.19;;;27.39;46.23
76260;BME280;65076;52.362;6.588;2023-06-22T07:01:13;101833.22;;;26.67;47.75
76260;BME280;65076;52.362;6.588;2023-06-22T07:03:43;101843.25;;;26.77;46.76
76260;BME280;65076;52.362;6.588;2023-06-22T07:06:13;101840.66;;;27.38;45.47
76260;BME280;65076;52.362;6.588;2023-06-22T07:08:43;101840.78;;;27.90;44.38
76260;BME280;65076;52.362;6.588;2023-06-22T07:11:19;101845.56;;;27.09;46.60
76260;BME280;65076;52.362;6.588;2023-06-22T07:13:47;101835.09;;;27.21;45.94
76260;BME280;65076;52.362;6.588;2023-06-22T07:16:16;101835.19;;;27.29;45.14
76260;BME280;65076;52.362;6.588;2023-06-22T07:18:44;101830.28;;;26.95;45.64
76260;BME280;65076;52.362;6.588;2023-06-22T07:21:12;101832.16;;;26.40;46.62
76260;BME280;65076;52.362;6.588;2023-06-22T07:23:40;101820.16;;;27.39;45.63
76260;BME280;65076;52.362;6.588;2023-06-22T07:26:09;101816.25;;;27.32;45.82
76260;BME280;65076;52.362;6.588;2023-06-22T07:28:39;101807.63;;;27.35;45.80
76260;BME280;65076;52.362;6.588;2023-06-22T07:31:07;101791.47;;;26.59;47.07
76260;BME280;65076;52.362;6.588;2023-06-22T07:33:37;101802.94;;;27.01;45.73
76260;BME280;65076;52.362;6.588;2023-06-22T07:36:05;101799.94;;;27.91;44.30
76260;BME280;65076;52.362;6.588;2023-06-22T07:38:34;101804.00;;;27.53;44.24
76260;BME280;65076;52.362;6.588;2023-06-22T07:41:02;101794.13;;;27.40;45.80
76260;BME280;65076;52.362;6.588;2023-06-22T07:43:32;101794.13;;;27.40;45.62
76260;BME280;65076;52.362;6.588;2023-06-22T07:46:01;101804.50;;;28.17;45.20
76260;BME280;65076;52.362;6.588;2023-06-22T07:48:40;101807.34;;;27.82;44.71
76260;BME280;65076;52.362;6.588;2023-06-22T07:51:10;101798.72;;;28.37;43.97
76260;BME280;65076;52.362;6.588;2023-06-22T07:53:39;101792.31;;;27.93;45.84
76260;BME280;65076;52.362;6.588;2023-06-22T07:56:26;101800.06;;;28.33;43.96
76260;BME280;65076;52.362;6.588;2023-06-22T07:58:53;101797.97;;;29.19;42.78
76260;BME280;65076;52.362;6.588;2023-06-22T08:01:24;101796.66;;;27.95;44.27
76260;BME280;65076;52.362;6.588;2023-06-22T08:04:26;101798.06;;;28.51;43.46
76260;BME280;65076;52.362;6.588;2023-06-22T08:06:55;101785.59;;;27.07;46.25
76260;BME280;65076;52.362;6.588;2023-06-22T08:09:23;101784.84;;;27.93;45.21
76260;BME280;65076;52.362;6.588;2023-06-22T08:11:51;101789.38;;;27.94;45.33
76260;BME280;65076;52.362;6.588;2023-06-22T08:14:19;101792.03;;;27.78;45.28
76260;BME280;65076;52.362;6.588;2023-06-22T08:16:47;101787.34;;;28.04;44.50
76260;BME280;65076;52.362;6.588;2023-06-22T08:19:15;101782.56;;;28.14;44.23
76260;BME280;65076;52.362;6.588;2023-06-22T08:21:50;101781.06;;;28.62;44.59
76260;BME280;65076;52.362;6.588;2023-06-22T08:24:27;101777.56;;;29.18;43.86
76260;BME280;65076;52.362;6.588;2023-06-22T08:27:07;101779.09;;;28.88;42.26
76260;BME280;65076;52.362;6.588;2023-06-22T08:29:36;101787.50;;;29.13;42.00
76260;BME280;65076;52.362;6.588;2023-06-22T08:32:05;101784.75;;;28.11;44.42
76260;BME280;65076;52.362;6.588;2023-06-22T08:34:33;101781.75;;;29.14;42.93
76260;BME280;65076;52.362;6.588;2023-06-22T08:37:03;101785.63;;;29.37;41.38
76260;BME280;65076;52.362;6.588;2023-06-22T08:39:32;101782.06;;;29.03;43.06
76260;BME280;65076;52.362;6.588;2023-06-22T08:42:01;101774.31;;;29.39;42.52
76260;BME280;65076;52.362;6.588;2023-06-22T08:44:29;101764.63;;;28.93;43.07
76260;BME280;65076;52.362;6.588;2023-06-22T08:46:58;101754.00;;;28.96;42.75
76260;BME280;65076;52.362;6.588;2023-06-22T08:49:32;101745.84;;;29.03;42.99
76260;BME280;65076;52.362;6.588;2023-06-22T08:52:00;101739.03;;;28.97;42.22
76260;BME280;65076;52.362;6.588;2023-06-22T08:54:30;101743.13;;;28.01;44.43
76260;BME280;65076;52.362;6.588;2023-06-22T08:57:16;101732.28;;;29.48;42.48
76260;BME280;65076;52.362;6.588;2023-06-22T08:59:44;101730.69;;;29.86;41.35
76260;BME280;65076;52.362;6.588;2023-06-22T09:02:12;101723.00;;;29.88;40.65
76260;BME280;65076;52.362;6.588;2023-06-22T09:04:40;101722.47;;;30.09;41.07
76260;BME280;65076;52.362;6.588;2023-06-22T09:07:08;101707.03;;;29.50;41.46
76260;BME280;65076;52.362;6.588;2023-06-22T09:09:40;101705.44;;;29.31;42.39
76260;BME280;65076;52.362;6.588;2023-06-22T09:12:09;101708.09;;;28.16;43.83
76260;BME280;65076;52.362;6.588;2023-06-22T09:14:37;101706.84;;;29.19;43.17
76260;BME280;65076;52.362;6.588;2023-06-22T09:17:05;101703.50;;;29.72;41.86
76260;BME280;65076;52.362;6.588;2023-06-22T09:19:33;101706.84;;;29.43;41.61
76260;BME280;65076;52.362;6.588;2023-06-22T09:22:01;101699.81;;;29.80;41.47
76260;BME280;65076;52.362;6.588;2023-06-22T09:24:29;101697.75;;;29.58;42.20
76260;BME280;65076;52.362;6.588;2023-06-22T09:26:59;101693.00;;;29.99;41.73
76260;BME280;65076;52.362;6.588;2023-06-22T09:29:29;101703.56;;;30.58;40.32
76260;BME280;65076;52.362;6.588;2023-06-22T09:32:07;101697.66;;;30.53;40.44
76260;BME280;65076;52.362;6.588;2023-06-22T09:34:35;101702.94;;;30.40;40.89
76260;BME280;65076;52.362;6.588;2023-06-22T09:37:06;101709.31;;;31.19;39.21
76260;BME280;65076;52.362;6.588;2023-06-22T09:39:34;101706.84;;;30.93;38.38
76260;BME280;65076;52.362;6.588;2023-06-22T09:42:05;101711.81;;;30.52;39.40
76260;BME280;65076;52.362;6.588;2023-06-22T09:44:34;101709.03;;;30.44;39.60
76260;BME280;65076;52.362;6.588;2023-06-22T09:47:02;101714.75;;;30.11;39.55
76260;BME280;65076;52.362;6.588;2023-06-22T09:49:30;101711.41;;;30.16;39.57
76260;BME280;65076;52.362;6.588;2023-06-22T09:52:14;101706.03;;;30.14;39.15
76260;BME280;65076;52.362;6.588;2023-06-22T09:54:42;101702.28;;;29.59;41.04
76260;BME280;65076;52.362;6.588;2023-06-22T09:57:11;101707.34;;;29.23;41.62
76260;BME280;65076;52.362;6.588;2023-06-22T09:59:39;101716.78;;;29.30;41.60
76260;BME280;65076;52.362;6.588;2023-06-22T10:02:10;101703.88;;;29.37;40.52
76260;BME280;65076;52.362;6.588;2023-06-22T10:04:38;101692.38;;;29.48;42.11
76260;BME280;65076;52.362;6.588;2023-06-22T10:07:07;101698.13;;;29.38;43.06
76260;BME280;65076;52.362;6.588;2023-06-22T10:09:35;101694.84;;;29.35;42.43
76260;BME280;65076;52.362;6.588;2023-06-22T10:12:15;101694.00;;;28.60;43.34
76260;BME280;65076;52.362;6.588;2023-06-22T10:14:43;101697.56;;;28.86;43.52
76260;BME280;65076;52.362;6.588;2023-06-22T10:17:11;101688.50;;;28.76;42.71
76260;BME280;65076;52.362;6.588;2023-06-22T10:19:39;101693.19;;;28.26;43.59
76260;BME280;65076;52.362;6.588;2023-06-22T10:22:08;101694.31;;;28.49;44.29
76260;BME280;65076;52.362;6.588;2023-06-22T10:24:36;101682.59;;;29.03;43.33
76260;BME280;65076;52.362;6.588;2023-06-22T10:27:26;101688.78;;;28.65;44.28
76260;BME280;65076;52.362;6.588;2023-06-22T10:29:54;101694.78;;;27.68;44.87
76260;BME280;65076;52.362;6.588;2023-06-22T10:32:23;101688.09;;;28.13;43.52
76260;BME280;65076;52.362;6.588;2023-06-22T10:34:51;101679.63;;;27.97;44.80
76260;BME280;65076;52.362;6.588;2023-06-22T10:37:19;101688.25;;;27.86;44.11
76260;BME280;65076;52.362;6.588;2023-06-22T10:39:48;101693.66;;;27.18;44.80
76260;BME280;65076;52.362;6.588;2023-06-22T10:42:16;101697.56;;;27.68;43.11
76260;BME280;65076;52.362;6.588;2023-06-22T10:44:46;101691.91;;;27.52;45.10
76260;BME280;65076;52.362;6.588;2023-06-22T10:47:14;101693.34;;;27.64;44.41
76260;BME280;65076;52.362;6.588;2023-06-22T10:49:42;101698.03;;;27.64;44.16
76260;BME280;65076;52.362;6.588;2023-06-22T10:52:10;101698.19;;;27.88;44.47
76260;BME280;65076;52.362;6.588;2023-06-22T10:54:41;101698.88;;;27.90;44.20
76260;BME280;65076;52.362;6.588;2023-06-22T10:57:09;101692.94;;;27.33;43.83
76260;BME280;65076;52.362;6.588;2023-06-22T10:59:37;101687.63;;;26.69;46.24
76260;BME280;65076;52.362;6.588;2023-06-22T11:02:06;101685.53;;;27.42;46.44
76260;BME280;65076;52.362;6.588;2023-06-22T11:04:34;101680.66;;;27.62;45.40
76260;BME280;65076;52.362;6.588;2023-06-22T11:07:03;101688.09;;;27.35;46.05
76260;BME280;65076;52.362;6.588;2023-06-22T11:09:36;101678.25;;;27.67;45.29
76260;BME280;65076;52.362;6.588;2023-06-22T11:12:06;101672.34;;;27.70;45.42
76260;BME280;65076;52.362;6.588;2023-06-22T11:14:34;101678.53;;;27.56;45.60
76260;BME280;65076;52.362;6.588;2023-06-22T11:17:03;101672.69;;;27.67;45.32
76260;BME280;65076;52.362;6.588;2023-06-22T11:19:33;101667.59;;;27.88;44.99
76260;BME280;65076;52.362;6.588;2023-06-22T11:22:03;101671.75;;;27.84;46.05
76260;BME280;65076;52.362;6.588;2023-06-22T11:24:31;101663.97;;;27.96;45.50
76260;BME280;65076;52.362;6.588;2023-06-22T11:26:59;101666.13;;;27.76;46.15
76260;BME280;65076;52.362;6.588;2023-06-22T11:29:28;101653.69;;;27.88;45.23
76260;BME280;65076;52.362;6.588;2023-06-22T11:32:04;101655.84;;;28.02;45.54
76260;BME280;65076;52.362;6.588;2023-06-22T11:34:37;101649.13;;;28.13;44.33
76260;BME280;65076;52.362;6.588;2023-06-22T11:37:06;101648.47;;;28.27;44.44
76260;BME280;65076;52.362;6.588;2023-06-22T11:39:34;101647.47;;;27.94;45.70
76260;BME280;65076;52.362;6.588;2023-06-22T11:42:13;101639.94;;;27.87;45.50
76260;BME280;65076;52.362;6.588;2023-06-22T11:44:42;101638.50;;;28.16;45.37
76260;BME280;65076;52.362;6.588;2023-06-22T11:47:26;101632.06;;;28.16;44.89
76260;BME280;65076;52.362;6.588;2023-06-22T11:49:55;101621.13;;;27.80;46.00
76260;BME280;65076;52.362;6.588;2023-06-22T11:52:23;101628.59;;;28.14;45.16
76260;BME280;65076;52.362;6.588;2023-06-22T11:54:53;101629.75;;;28.03;45.49
76260;BME280;65076;52.362;6.588;2023-06-22T11:57:53;101613.94;;;27.70;45.26
76260;BME280;65076;52.362;6.588;2023-06-22T12:00:22;101611.38;;;27.76;45.41
76260;BME280;65076;52.362;6.588;2023-06-22T12:02:55;101602.13;;;27.68;45.32
76260;BME280;65076;52.362;6.588;2023-06-22T12:05:27;101606.63;;;27.43;45.93
76260;BME280;65076;52.362;6.588;2023-06-22T12:07:55;101601.47;;;27.22;46.08
76260;BME280;65076;52.362;6.588;2023-06-22T12:10:45;101595.97;;;27.05;46.52
76260;BME280;65076;52.362;6.588;2023-06-22T12:13:14;101594.38;;;27.02;46.67
76260;BME280;65076;52.362;6.588;2023-06-22T12:18:54;101595.53;;;27.17;47.13
76260;BME280;65076;52.362;6.588;2023-06-22T12:21:24;101599.28;;;27.08;47.01
76260;BME280;65076;52.362;6.588;2023-06-22T12:23:52;101593.47;;;27.19;46.83
76260;BME280;65076;52.362;6.588;2023-06-22T12:26:20;101597.66;;;27.23;46.20
76260;BME280;65076;52.362;6.588;2023-06-22T12:28:48;101600.31;;;27.07;47.21
76260;BME280;65076;52.362;6.588;2023-06-22T12:31:17;101601.34;;;27.06;46.22
76260;BME280;65076;52.362;6.588;2023-06-22T12:33:45;101591.91;;;26.81;46.89
76260;BME280;65076;52.362;6.588;2023-06-22T12:36:13;101593.38;;;26.68;47.73
76260;BME280;65076;52.362;6.588;2023-06-22T12:39:04;101591.38;;;26.78;47.56
76260;BME280;65076;52.362;6.588;2023-06-22T12:41:32;101596.53;;;26.90;47.54
76260;BME280;65076;52.362;6.588;2023-06-22T12:44:04;101595.50;;;26.38;49.14
76260;BME280;65076;52.362;6.588;2023-06-22T12:46:32;101606.22;;;26.69;48.51
76260;BME280;65076;52.362;6.588;2023-06-22T12:49:04;101611.59;;;26.70;48.97
76260;BME280;65076;52.362;6.588;2023-06-22T12:51:32;101616.13;;;26.71;49.47
76260;BME280;65076;52.362;6.588;2023-06-22T12:54:00;101607.09;;;26.87;49.27
76260;BME280;65076;52.362;6.588;2023-06-22T12:59:38;101606.06;;;27.31;49.24
76260;BME280;65076;52.362;6.588;2023-06-22T13:02:13;101607.47;;;27.35;47.80
76260;BME280;65076;52.362;6.588;2023-06-22T13:04:41;101613.53;;;26.87;49.87
76260;BME280;65076;52.362;6.588;2023-06-22T13:07:10;101608.53;;;26.91;51.10
76260;BME280;65076;52.362;6.588;2023-06-22T13:09:41;101608.84;;;26.52;52.93
76260;BME280;65076;52.362;6.588;2023-06-22T13:12:13;101606.25;;;26.06;53.02